• Join FlightAware (Why Join?)
  • Login
  • US Flag 
Gobble Gobble! 
12:52PM EST


 

Airport Tracker/Info


-or-


 

Live Flight TrackerFlight Track Log ✈ AIP1598 ✈ 15-Aug-2014 ✈ KMSO - KBIL

Flight Track Log - Related Links

Times and Time Zones

All times are in EDT time to prevent confusion due to time zone crossing. See the AIP1598 flight status page for this flight to view local times or setup timezone preferences in your user account.

Time Position Orientation Groundspeed Altitude Reporting Facility
EDT Latitude Longitude Course Direction KTS MPH feet Rate Location/Type
07:58PM 46.9503 -114.1625 107° East 145 167 9,500  Level Salt Lake Center
07:59PM 46.9447 -114.1756 238° Southwest 145 167 11,700 2,760 Climbing Salt Lake Center
08:00PM 46.9228 -114.0356 103° East 164 189 15,300 2,760 Climbing Salt Lake Center
08:01PM 46.9075 -113.9681 108° East 175 201 17,400 1,920 Climbing Salt Lake Center
08:02PM 46.8919 -113.8967 108° East 179 206 19,300 1,740 Climbing Salt Lake Center
08:03PM 46.8340 -113.6185 107° East  Level Estimated
08:03PM 46.8761 -113.8325 110° East 179 206 21,000  Level Salt Lake Center
08:04PM 46.8583 -113.7422 106° East 239 275 21,000  Level Salt Lake Center
08:05PM 46.8383 -113.6394 106° East 262 302 21,000  Level Salt Lake Center
08:06PM 46.8131 -113.5075 106° East 279 321 21,000  Level Salt Lake Center
08:07PM 46.7950 -113.3942 103° East 285 328 21,000  Level Salt Lake Center
08:08PM 46.7781 -113.2831 103° East 284 327 21,000  Level Salt Lake Center
08:09PM 46.7594 -113.1719 104° East 284 327 21,000 -60 Level Salt Lake Center
08:10PM 46.7433 -113.0614 102° East 282 325 20,900  Descending Salt Lake Center
08:11PM 46.7272 -112.9506 102° East 281 323 21,000  Climbing Salt Lake Center
08:12PM 46.7022 -112.8211 106° East 282 325 21,000  Level Salt Lake Center
08:13PM 46.6806 -112.7122 106° East 281 323 21,000  Level Salt Lake Center
08:14PM 46.6597 -112.6019 105° East 282 325 21,000  Level Salt Lake Center
08:15PM 46.6436 -112.4892 102° East 283 326 21,000 -60 Level Salt Lake Center
08:16PM 46.6250 -112.3806 104° East 282 325 20,900  Descending Salt Lake Center
08:17PM 46.5947 -112.2539 109° East 280 322 21,000  Climbing Salt Lake Center
08:18PM 46.5742 -112.1442 105° East 280 322 21,000  Level Salt Lake Center
08:19PM 46.5514 -112.0372 107° East 281 323 21,100  Climbing Salt Lake Center
08:20PM 46.5231 -111.9344 112° Southeast 277 319 21,100 -60 Level Salt Lake Center
08:21PM 46.4997 -111.8269 107° East 278 320 21,000 -60 Descending Salt Lake Center
08:23PM 46.4772 -111.7169 107° East 281 323 21,000  Level Salt Lake Center
08:24PM 46.4506 -111.5867 107° East 282 325 21,100 -60 Climbing Salt Lake Center
08:25PM 46.4264 -111.4819 108° East 279 321 20,900 -60 Descending Salt Lake Center
08:26PM 46.4031 -111.3622 106° East 279 321 21,000 60 Climbing Salt Lake Center
08:27PM 46.3836 -111.2539 105° East 278 320 21,100  Climbing Salt Lake Center
08:28PM 46.3581 -111.1492 109° East 275 316 21,000 -60 Descending Salt Lake Center
08:29PM 46.3297 -111.0444 111° Southeast 274 315 21,000  Level Salt Lake Center
08:30PM 46.3100 -110.9456 106° East 274 315 21,000  Level Salt Lake Center
08:31PM 46.2842 -110.8417 110° East 274 315 21,000  Level Salt Lake Center
08:32PM 46.2572 -110.7358 110° East 278 320 21,100 -60 Climbing Salt Lake Center
08:33PM 46.2275 -110.6039 108° East 283 326 20,900 -120 Descending Salt Lake Center
08:34PM 46.2075 -110.4914 104° East 285 328 20,900 -60 Level Salt Lake Center
08:35PM 46.1869 -110.3792 105° East 288 331 20,800 -180 Descending Salt Lake Center
08:36PM 46.1600 -110.2708 110° East 287 330 20,600 -360 Descending Salt Lake Center
08:37PM 46.1364 -110.1589 107° East 288 331 20,100 -840 Descending Salt Lake Center
08:38PM 46.1111 -110.0386 107° East 305 351 18,900 -1,260 Descending Salt Lake Center
08:39PM 46.0767 -109.8950 109° East 314 361 17,500 -1,200 Descending Salt Lake Center
08:40PM 46.0461 -109.7803 111° Southeast 313 360 16,500 -840 Descending Salt Lake Center
08:41PM 46.0181 -109.6592 108° East 301 346 15,800 -1,020 Descending Salt Lake Center
08:42PM 45.9903 -109.5469 110° East 301 346 14,400 -1,200 Descending Salt Lake Center
08:43PM 45.9622 -109.4211 108° East 305 351 13,400 -1,020 Descending Salt Lake Center
08:44PM 45.9397 -109.3067 106° East 302 348 12,400 -1,260 Descending Salt Lake Center
08:45PM 45.9181 -109.1825 104° East 302 348 10,900 -1,380 Descending Salt Lake Center
08:46PM 45.9033 -109.0650 100° East 302 348 9,600 -1,200 Descending Salt Lake Center
08:47PM 45.8961 -108.9478 95° East 300 345 8,500 -1,140 Descending Salt Lake Center
08:48PM 45.8908 -108.8292 94° East 284 327 7,300 -1,260 Descending Salt Lake Center
08:49PM 45.8628 -108.7322 113° Southeast 270 311 6,000 -1,080 Descending Salt Lake Center
08:50PM 45.8361 -108.6400 113° Southeast 234 269 5,100 -1,020 Descending Salt Lake Center
08:51PM 45.8192 -108.5769 111° Southeast 177 204 3,900 -840 Descending Salt Lake Center
08:52PM 45.8075 -108.5311 110° East 145 167 3,500 -420 Descending Salt Lake Center
08:54PM 45.8000 -108.5333 270° West  Level FlightAware Approximate